Time;durP1;ratioP1;P1;durP2;ratioP2;P2;SDS_P1;SDS_P2;PMS_P1;PMS_P2;Temp;Humidity;BMP_temperature;BMP_pressure;BME280_temperature;BME280_humidity;BME280_pressure;Samples;Min_cycle;Max_cycle;Signal;HPM_P1;HPM_P2
2022/03/20 00:00:30;;;;;;;;;3.25;2.00;;;;;9.62;35.92;102387.22;5059429;28;45412;-63
2022/03/20 00:02:55;;;;;;;;;5.50;4.50;;;;;9.59;35.80;102381.97;5059641;28;45379;-63
2022/03/20 00:05:21;;;;;;;;;4.75;3.00;;;;;9.58;36.62;102372.47;5059261;28;45333;-65
2022/03/20 00:07:47;;;;;;;;;6.50;3.50;;;;;9.48;36.47;102360.34;5058452;28;45495;-65
2022/03/20 00:10:14;;;;;;;;;7.75;5.50;;;;;9.54;36.45;102375.06;5057507;28;45660;-65
2022/03/20 00:12:40;;;;;;;;;3.75;3.75;;;;;9.50;36.98;102369.00;5058727;28;46388;-65
2022/03/20 00:15:07;;;;;;;;;7.25;3.00;;;;;9.45;36.77;102373.31;5057562;28;45334;-64
2022/03/20 00:17:33;;;;;;;;;3.75;3.00;;;;;9.44;36.87;102382.81;5057340;28;45578;-64
2022/03/20 00:19:58;;;;;;;;;6.00;5.00;;;;;9.39;37.10;102376.72;5057945;28;45330;-65
2022/03/20 00:22:24;;;;;;;;;5.00;2.25;;;;;9.36;37.30;102370.66;5057831;28;46247;-64
2022/03/20 00:24:50;;;;;;;;;3.00;2.75;;;;;9.29;37.34;102382.75;5058125;28;45446;-64
2022/03/20 00:27:16;;;;;;;;;3.00;3.00;;;;;9.27;37.27;102381.03;5058544;28;45432;-64
2022/03/20 00:29:43;;;;;;;;;6.00;3.00;;;;;9.21;37.49;102371.50;5058321;28;45407;-64
2022/03/20 00:32:11;;;;;;;;;3.00;3.00;;;;;9.15;37.65;102376.63;5057049;28;45694;-64
2022/03/20 00:34:37;;;;;;;;;6.00;6.00;;;;;9.11;37.73;102383.53;5089652;27;45987;-63
2022/03/20 00:37:04;;;;;;;;;1.75;1.75;;;;;9.06;37.76;102374.88;5057187;28;45334;-62
2022/03/20 00:39:29;;;;;;;;;2.25;2.25;;;;;8.98;37.46;102378.28;5057196;28;45489;-62
2022/03/20 00:41:55;;;;;;;;;5.25;3.50;;;;;8.96;37.64;102369.63;5056923;28;45503;-62
2022/03/20 00:44:20;;;;;;;;;4.00;1.25;;;;;8.91;37.55;102369.59;5057454;28;45553;-62
2022/03/20 00:46:48;;;;;;;;;4.00;1.75;;;;;8.87;37.59;102367.84;5059550;28;45381;-62
2022/03/20 00:49:14;;;;;;;;;4.00;2.00;;;;;8.81;38.10;102360.91;5059479;28;45426;-62
2022/03/20 00:51:39;;;;;;;;;5.75;2.75;;;;;8.75;37.85;102360.88;5059076;28;45307;-64
2022/03/20 00:54:05;;;;;;;;;4.00;3.00;;;;;8.72;38.31;102366.03;5059685;28;45297;-64
2022/03/20 00:56:30;;;;;;;;;2.50;1.50;;;;;8.69;38.00;102365.16;5059500;28;45398;-64
2022/03/20 00:58:55;;;;;;;;;1.50;1.50;;;;;8.66;38.53;102365.13;5063334;28;45351;-64
2022/03/20 01:01:21;;;;;;;;;5.75;3.00;;;;;8.65;38.46;102363.41;5095321;27;47166;-64
2022/03/20 01:03:46;;;;;;;;;2.00;2.00;;;;;8.61;38.51;102353.84;5062849;28;45353;-64
2022/03/20 01:06:12;;;;;;;;;1.50;1.25;;;;;8.59;38.50;102352.97;5062862;28;45396;-64
2022/03/20 01:08:38;;;;;;;;;6.25;2.50;;;;;8.56;38.51;102352.97;5063070;28;45201;-64
2022/03/20 01:11:06;;;;;;;;;2.00;2.00;;;;;8.52;38.55;102344.31;5062673;28;46226;-64
2022/03/20 01:13:31;;;;;;;;;1.00;1.00;;;;;8.48;38.54;102337.38;5063097;28;45301;-63
2022/03/20 01:15:58;;;;;;;;;2.50;2.00;;;;;8.46;38.72;102352.03;5062816;28;45493;-64
2022/03/20 01:18:24;;;;;;;;;3.00;1.50;;;;;8.40;38.82;102341.63;5062611;28;45269;-64
2022/03/20 01:20:50;;;;;;;;;1.75;1.75;;;;;8.36;38.88;102338.13;5062075;28;46097;-63
2022/03/20 01:23:16;;;;;;;;;3.00;1.00;;;;;8.32;39.51;102336.34;5062891;28;45325;-64
2022/03/20 01:25:42;;;;;;;;;1.75;1.75;;;;;8.29;39.43;102338.06;5062750;28;45215;-64
2022/03/20 01:28:07;;;;;;;;;3.50;3.00;;;;;8.26;39.54;102333.72;5062555;28;45288;-66
2022/03/20 01:30:33;;;;;;;;;5.00;2.00;;;;;8.19;39.26;102332.78;5060213;28;45409;-65
2022/03/20 01:32:58;;;;;;;;;1.25;1.25;;;;;8.16;39.58;102335.38;5062601;28;45211;-67
2022/03/20 01:35:24;;;;;;;;;3.00;3.00;;;;;8.11;39.59;102326.69;5062469;28;45279;-65
2022/03/20 01:37:50;;;;;;;;;4.50;2.25;;;;;8.09;40.13;102332.72;5062502;28;45468;-65
2022/03/20 01:40:16;;;;;;;;;5.50;2.75;;;;;8.04;40.08;102327.53;5062129;28;46617;-64
2022/03/20 01:42:41;;;;;;;;;4.00;1.75;;;;;7.97;40.10;102317.06;5062466;28;46023;-65
2022/03/20 01:45:21;;;;;;;;;2.00;2.00;;;;;7.94;40.05;102320.50;5095174;27;45291;-64
2022/03/20 01:47:49;;;;;;;;;3.00;1.25;;;;;7.91;40.44;102323.94;5061142;28;45542;-64
2022/03/20 01:50:19;;;;;;;;;2.75;2.75;;;;;7.89;40.15;102312.72;5094728;27;47114;-64
2022/03/20 01:52:47;;;;;;;;;5.00;3.00;;;;;7.83;40.52;102307.50;5062239;28;45348;-64
2022/03/20 01:55:14;;;;;;;;;5.00;5.00;;;;;7.81;41.15;102311.78;5062605;28;45398;-64
2022/03/20 01:57:39;;;;;;;;;1.75;1.00;;;;;7.77;40.67;102317.75;5062046;28;45304;-64
2022/03/20 02:00:09;;;;;;;;;3.00;2.50;;;;;7.74;40.88;102324.63;5062377;28;45312;-64
2022/03/20 02:02:34;;;;;;;;;2.75;2.00;;;;;7.71;40.98;102316.84;5060556;28;45322;-64
2022/03/20 02:05:01;;;;;;;;;3.00;2.00;;;;;7.71;41.29;102316.84;5062100;28;45145;-63
2022/03/20 02:07:27;;;;;;;;;3.00;2.00;;;;;7.66;40.82;102303.88;5061993;28;45335;-63
2022/03/20 02:09:53;;;;;;;;;3.00;3.00;;;;;7.65;41.45;102306.44;5061405;28;45283;-63
2022/03/20 02:12:19;;;;;;;;;2.00;1.75;;;;;7.63;41.61;102306.44;5061777;28;45237;-62
2022/03/20 02:14:44;;;;;;;;;2.00;0.00;;;;;7.58;41.78;102300.31;5062214;28;45377;-62
2022/03/20 02:17:11;;;;;;;;;8.50;4.00;;;;;7.55;41.97;102298.59;5061836;28;45556;-63
2022/03/20 02:19:39;;;;;;;;;2.25;2.00;;;;;7.52;42.15;102295.97;5094511;27;47358;-63
2022/03/20 02:22:05;;;;;;;;;3.00;3.00;;;;;7.51;41.83;102289.06;5061353;28;45917;-64
2022/03/20 02:24:41;;;;;;;;;3.00;3.00;;;;;7.50;42.33;102289.91;5062129;28;45177;-63
2022/03/20 02:27:09;;;;;;;;;6.25;3.00;;;;;7.50;42.11;102281.28;5061739;28;45571;-64
2022/03/20 02:29:36;;;;;;;;;4.50;2.50;;;;;7.48;42.32;102273.50;5059772;28;47822;-63
2022/03/20 02:32:04;;;;;;;;;2.00;2.00;;;;;7.44;42.77;102282.09;5061513;28;45332;-65
2022/03/20 02:34:30;;;;;;;;;3.00;2.75;;;;;7.45;42.38;102281.25;5061592;28;45441;-65
2022/03/20 02:36:57;;;;;;;;;4.25;3.00;;;;;7.43;42.61;102282.09;5061287;28;45299;-65
2022/03/20 02:39:23;;;;;;;;;3.00;2.75;;;;;7.39;42.59;102277.72;5060195;28;47352;-65
2022/03/20 02:41:51;;;;;;;;;2.00;2.00;;;;;7.38;43.05;102271.69;5061407;28;45563;-65
2022/03/20 02:44:16;;;;;;;;;5.75;3.00;;;;;7.35;42.55;102271.66;5061696;28;45252;-64
2022/03/20 02:46:42;;;;;;;;;6.50;3.50;;;;;7.28;42.93;102270.72;5061274;28;45386;-64
2022/03/20 02:49:09;;;;;;;;;2.50;2.25;;;;;7.26;43.60;102269.84;5061150;28;46136;-64
2022/03/20 02:51:36;;;;;;;;;4.75;2.00;;;;;7.22;43.63;102268.09;5061167;28;45719;-66
2022/03/20 02:54:02;;;;;;;;;1.75;1.75;;;;;7.16;43.05;102256.78;5061573;28;45235;-65
2022/03/20 02:56:28;;;;;;;;;4.50;3.25;;;;;7.15;43.66;102262.81;5061039;28;45232;-65
2022/03/20 02:58:54;;;;;;;;;4.00;4.00;;;;;7.12;43.86;102255.03;5061276;28;46095;-65
2022/03/20 03:01:19;;;;;;;;;5.00;5.00;;;;;7.08;43.44;102255.84;5093418;27;45442;-66
2022/03/20 03:03:45;;;;;;;;;4.50;4.50;;;;;7.04;44.18;102256.66;5061046;28;45346;-66
2022/03/20 03:06:15;;;;;;;;;4.00;3.50;;;;;7.03;43.98;102252.34;5059402;28;45512;-64
2022/03/20 03:11:24;;;;;;;;;5.50;2.50;;;;;6.95;44.38;102247.94;5060909;28;45258;-66
2022/03/20 03:13:50;;;;;;;;;9.25;5.25;;;;;6.89;44.67;102231.50;5093405;27;45192;-66
2022/03/20 03:16:16;;;;;;;;;3.50;3.00;;;;;6.87;45.12;102221.16;5061087;28;45228;-64
2022/03/20 03:18:47;;;;;;;;;2.25;2.00;;;;;6.84;45.87;102225.44;5060382;28;46289;-65
2022/03/20 03:21:16;;;;;;;;;4.00;2.00;;;;;6.83;45.47;102237.47;5057997;28;45526;-64
2022/03/20 03:23:43;;;;;;;;;6.25;5.00;;;;;6.81;46.64;102234.00;5060714;28;45296;-64
2022/03/20 03:26:09;;;;;;;;;4.50;4.25;;;;;6.78;45.49;102235.66;5060937;28;45295;-64
2022/03/20 03:28:35;;;;;;;;;8.50;5.75;;;;;6.79;45.41;102239.97;5060084;28;45488;-63
2022/03/20 03:31:06;;;;;;;;;5.25;5.00;;;;;6.78;45.42;102235.66;5060549;28;45306;-63
2022/03/20 03:33:32;;;;;;;;;4.00;4.00;;;;;6.78;45.88;102238.25;5093149;27;45243;-63
2022/03/20 03:35:57;;;;;;;;;5.00;5.00;;;;;6.75;45.78;102238.22;5060503;28;45250;-63
2022/03/20 03:38:30;;;;;;;;;6.00;6.00;;;;;6.73;46.12;102233.03;5060415;28;46013;-64
2022/03/20 03:40:56;;;;;;;;;8.50;4.75;;;;;6.69;46.00;102233.84;5060638;28;45235;-63
2022/03/20 03:43:23;;;;;;;;;6.25;5.00;;;;;6.70;45.70;102222.66;5060364;28;45243;-63
2022/03/20 03:45:48;;;;;;;;;7.25;6.75;;;;;6.67;47.26;102231.25;5060553;28;45189;-64
2022/03/20 03:48:16;;;;;;;;;4.75;4.75;;;;;6.65;45.90;102232.09;5059946;28;45476;-63
2022/03/20 03:50:43;;;;;;;;;5.00;4.75;;;;;6.68;46.05;102230.41;5060270;28;45738;-64
2022/03/20 03:53:09;;;;;;;;;6.00;6.00;;;;;6.67;46.08;102225.22;5060270;28;45344;-64
2022/03/20 03:55:36;;;;;;;;;6.75;4.00;;;;;6.66;46.72;102223.47;5060173;28;45464;-64
2022/03/20 03:58:03;;;;;;;;;5.00;4.00;;;;;6.65;46.82;102225.19;5058656;28;48405;-63
2022/03/20 04:00:32;;;;;;;;;5.00;2.00;;;;;6.64;46.28;102217.44;5060210;28;45271;-63
2022/03/20 04:02:58;;;;;;;;;3.50;1.50;;;;;6.63;46.45;102218.28;5058622;28;45765;-63
2022/03/20 04:05:24;;;;;;;;;7.00;5.75;;;;;6.62;46.82;102221.72;5056150;28;45526;-63
2022/03/20 04:07:50;;;;;;;;;9.00;6.25;;;;;6.64;47.17;102220.03;5057388;28;45616;-63
2022/03/20 04:10:17;;;;;;;;;11.50;5.00;;;;;6.67;47.23;102227.81;5057600;28;45348;-63
2022/03/20 04:12:43;;;;;;;;;9.50;6.00;;;;;6.66;46.98;102221.78;5056160;28;45590;-63
2022/03/20 04:15:10;;;;;;;;;8.00;8.00;;;;;6.67;46.35;102217.47;5057624;28;45518;-63
2022/03/20 04:17:37;;;;;;;;;5.00;3.00;;;;;6.66;47.06;102220.91;5057308;28;45616;-63
2022/03/20 04:20:04;;;;;;;;;8.00;5.25;;;;;6.64;47.03;102214.84;5058355;28;45867;-63
2022/03/20 04:22:29;;;;;;;;;9.50;6.75;;;;;6.64;47.23;102210.56;5057401;28;45479;-63
2022/03/20 04:24:55;;;;;;;;;8.00;5.00;;;;;6.63;47.02;102215.72;5057452;28;45517;-63
2022/03/20 04:27:21;;;;;;;;;5.75;5.50;;;;;6.62;47.14;102213.97;5057135;28;45798;-64
2022/03/20 04:29:47;;;;;;;;;8.50;5.50;;;;;6.60;47.51;102211.34;5056957;28;45535;-61
2022/03/20 04:32:13;;;;;;;;;11.50;7.25;;;;;6.61;47.43;102207.06;5089498;27;45409;-62
2022/03/20 04:34:40;;;;;;;;;6.00;6.00;;;;;6.58;47.93;102207.88;5057240;28;45774;-64
2022/03/20 04:37:07;;;;;;;;;9.50;6.75;;;;;6.57;47.27;102216.47;5056866;28;45394;-63
2022/03/20 04:39:34;;;;;;;;;10.75;6.00;;;;;6.58;46.75;102227.66;5058347;28;45462;-64
2022/03/20 04:41:59;;;;;;;;;9.25;7.50;;;;;6.53;48.13;102225.03;5058160;28;45209;-64
2022/03/20 04:44:25;;;;;;;;;11.50;2.50;;;;;6.54;48.37;102220.75;5059730;28;45257;-63
2022/03/20 04:46:51;;;;;;;;;7.50;7.50;;;;;6.56;47.74;102222.50;5059348;28;45521;-63
2022/03/20 05:00:18;;;;;;;;;6.25;6.00;;;;;6.51;48.53;102218.13;5059434;28;45785;-63
2022/03/20 05:02:45;;;;;;;;;6.00;6.00;;;;;6.48;48.49;102216.38;5059218;28;45311;-63
2022/03/20 05:05:11;;;;;;;;;9.00;8.25;;;;;6.50;48.60;102214.66;5059051;28;45377;-65
2022/03/20 05:07:36;;;;;;;;;4.75;4.75;;;;;6.47;48.48;102213.78;5059047;28;45322;-64
2022/03/20 05:15:31;;;;;;;;;6.00;6.00;;;;;6.38;48.10;102217.94;5058989;28;45257;-64
2022/03/20 05:17:57;;;;;;;;;6.00;6.00;;;;;6.34;48.70;102211.00;5057934;28;45757;-65
2022/03/20 05:20:23;;;;;;;;;9.50;8.25;;;;;6.32;48.66;102215.28;5058333;28;45358;-64
2022/03/20 05:22:52;;;;;;;;;6.50;6.00;;;;;6.28;48.74;102213.53;5059336;28;45318;-64
2022/03/20 05:25:18;;;;;;;;;9.00;5.75;;;;;6.27;49.33;102211.78;5059073;28;45214;-64
2022/03/20 05:27:44;;;;;;;;;10.00;6.00;;;;;6.25;48.90;102208.31;5059001;28;45307;-64
2022/03/20 05:30:10;;;;;;;;;9.00;9.00;;;;;6.21;49.32;102206.56;5058494;28;45408;-63
2022/03/20 05:32:37;;;;;;;;;11.25;6.50;;;;;6.18;49.76;102211.63;5059214;28;45342;-64
2022/03/20 05:35:11;;;;;;;;;8.00;8.00;;;;;6.14;49.38;102206.41;5091173;27;45366;-64
2022/03/20 05:37:36;;;;;;;;;11.75;9.25;;;;;6.08;49.35;102205.50;5057937;28;47241;-63
2022/03/20 05:40:03;;;;;;;;;9.25;8.00;;;;;6.10;49.48;102208.97;5058664;28;45388;-63
2022/03/20 05:42:29;;;;;;;;;12.50;8.25;;;;;6.10;49.80;102208.97;5058888;28;45248;-63
2022/03/20 05:44:54;;;;;;;;;7.75;7.75;;;;;6.08;48.77;102213.25;5060731;28;45433;-63
2022/03/20 05:47:20;;;;;;;;;6.00;5.00;;;;;6.05;49.34;102214.91;5062258;28;46293;-64
2022/03/20 05:49:46;;;;;;;;;5.75;5.75;;;;;6.02;49.06;102212.28;5061955;28;45185;-64
2022/03/20 05:52:13;;;;;;;;;10.00;9.00;;;;;5.99;49.85;102215.66;5062342;28;45228;-64
2022/03/20 05:54:39;;;;;;;;;7.75;5.25;;;;;5.94;49.44;102207.00;5061836;28;45176;-63
2022/03/20 05:59:49;;;;;;;;;6.50;5.50;;;;;5.91;50.18;102216.41;5049130;28;45155;-61
2022/03/20 06:02:15;;;;;;;;;8.50;6.00;;;;;5.89;50.24;102218.94;5061882;28;45754;-62
2022/03/20 06:04:40;;;;;;;;;3.75;0.00;;;;;5.90;50.10;102214.66;5061887;28;45350;-63
2022/03/20 06:07:06;;;;;;;;;6.00;6.00;;;;;5.90;50.67;102209.50;5061648;28;46509;-63
2022/03/20 06:09:32;;;;;;;;;10.50;8.75;;;;;5.86;49.85;102207.69;5094789;27;45305;-63
2022/03/20 06:11:57;;;;;;;;;7.50;7.50;;;;;5.82;49.73;102209.38;5061948;28;45338;-63
2022/03/20 06:14:23;;;;;;;;;8.75;6.25;;;;;5.82;50.02;102204.22;5061962;28;45314;-63
2022/03/20 06:16:49;;;;;;;;;8.00;8.00;;;;;5.82;50.64;102206.78;5061579;28;45318;-63
2022/03/20 06:19:15;;;;;;;;;8.75;5.00;;;;;5.81;50.80;102210.22;5061700;28;45310;-63
2022/03/20 06:21:42;;;;;;;;;9.00;6.00;;;;;5.83;50.24;102217.97;5094114;27;45191;-64
2022/03/20 06:24:08;;;;;;;;;11.25;8.00;;;;;5.84;50.23;102223.16;5061499;28;45482;-63
2022/03/20 06:26:34;;;;;;;;;12.25;10.25;;;;;5.79;50.55;102217.91;5061800;28;45411;-64
2022/03/20 06:29:00;;;;;;;;;13.25;8.00;;;;;5.84;51.14;102224.88;5060953;28;45805;-65
2022/03/20 06:31:26;;;;;;;;;10.25;9.00;;;;;5.88;50.85;102226.66;5061882;28;45325;-63
2022/03/20 06:33:51;;;;;;;;;13.00;12.25;;;;;5.92;50.49;102231.03;5093735;27;45489;-63
2022/03/20 06:36:16;;;;;;;;;6.50;6.50;;;;;5.94;50.14;102237.09;5061566;28;45327;-62
2022/03/20 06:38:42;;;;;;;;;8.00;8.00;;;;;5.95;51.11;102236.25;5061216;28;45391;-62
2022/03/20 06:41:08;;;;;;;;;8.75;5.00;;;;;5.92;51.04;102234.50;5060130;28;45323;-62
2022/03/20 06:43:35;;;;;;;;;8.50;8.50;;;;;5.98;50.11;102246.59;5059859;28;45485;-62
2022/03/20 06:46:02;;;;;;;;;9.00;9.00;;;;;6.01;50.70;102241.53;5060931;28;45338;-62
2022/03/20 06:48:27;;;;;;;;;6.50;6.50;;;;;6.07;50.79;102247.63;5060287;28;45192;-62
2022/03/20 06:50:53;;;;;;;;;12.00;9.00;;;;;6.10;50.95;102250.25;5060742;28;45283;-61
2022/03/20 06:53:18;;;;;;;;;10.50;10.25;;;;;6.12;50.52;102252.84;5061180;28;45275;-61
2022/03/20 06:55:44;;;;;;;;;11.00;11.00;;;;;6.15;51.51;102252.91;5060829;28;46313;-61
2022/03/20 06:58:11;;;;;;;;;10.50;8.75;;;;;6.18;51.02;102263.25;5059671;28;45389;-62
2022/03/20 07:00:37;;;;;;;;;12.75;11.00;;;;;6.18;50.42;102257.22;5061134;28;45310;-62
2022/03/20 07:03:06;;;;;;;;;12.00;12.00;;;;;6.21;50.58;102250.44;5060681;28;45378;-61
2022/03/20 07:05:32;;;;;;;;;23.00;14.00;;;;;6.26;50.34;102261.69;5060597;28;45300;-62
2022/03/20 07:07:58;;;;;;;;;9.25;7.50;;;;;6.26;50.80;102256.53;5061015;28;45211;-62
2022/03/20 07:10:25;;;;;;;;;12.50;9.50;;;;;6.26;50.96;102261.69;5060881;28;45497;-62
2022/03/20 07:12:51;;;;;;;;;11.50;9.75;;;;;6.31;50.32;102265.19;5060923;28;45303;-62
2022/03/20 07:15:20;;;;;;;;;16.25;11.75;;;;;6.37;50.57;102247.19;5060247;28;45468;-61
2022/03/20 07:17:48;;;;;;;;;9.25;8.00;;;;;6.43;50.58;102249.03;5059664;28;46067;-61
2022/03/20 07:20:15;;;;;;;;;12.50;12.50;;;;;6.47;50.82;102255.97;5060488;28;45318;-63
2022/03/20 07:22:41;;;;;;;;;18.50;12.75;;;;;6.53;50.47;102261.19;5060488;28;45330;-62
2022/03/20 07:30:37;;;;;;;;;16.25;14.25;;;;;6.61;50.40;102256.16;5060133;28;45622;-63
2022/03/20 07:33:02;;;;;;;;;23.50;12.50;;;;;6.67;50.93;102259.66;5060125;28;45358;-64
2022/03/20 07:35:27;;;;;;;;;14.00;12.75;;;;;6.72;50.97;102255.41;5092802;27;48019;-64
2022/03/20 07:37:53;;;;;;;;;19.50;16.50;;;;;6.80;50.78;102255.50;5060260;28;45371;-65
2022/03/20 07:40:18;;;;;;;;;12.25;12.25;;;;;6.87;50.72;102257.34;5060348;28;45431;-64
2022/03/20 07:42:43;;;;;;;;;21.00;13.75;;;;;6.96;51.15;102264.31;5058792;28;45482;-65
2022/03/20 07:45:09;;;;;;;;;18.50;16.75;;;;;7.06;50.57;102265.31;5059591;28;45590;-65
2022/03/20 07:47:35;;;;;;;;;16.25;12.50;;;;;7.17;50.55;102264.56;5059798;28;45208;-64
2022/03/20 07:50:02;;;;;;;;;21.25;16.25;;;;;7.30;50.30;102262.97;5059233;28;45275;-62
2022/03/20 07:52:29;;;;;;;;;18.25;16.00;;;;;7.43;50.39;102272.63;5059624;28;45275;-63
2022/03/20 07:54:54;;;;;;;;;22.25;14.75;;;;;7.50;49.52;102269.22;5059969;28;45506;-63
2022/03/20 07:57:20;;;;;;;;;20.75;15.00;;;;;7.63;50.29;102268.50;5060142;28;45405;-63
2022/03/20 07:59:46;;;;;;;;;19.50;16.00;;;;;7.73;50.05;102258.22;5092747;27;45342;-63
2022/03/20 08:02:11;;;;;;;;;19.00;15.75;;;;;7.86;49.77;102265.22;5059384;28;45345;-63
2022/03/20 08:04:37;;;;;;;;;24.50;17.75;;;;;7.92;49.70;102258.38;5059225;28;45302;-63
2022/03/20 08:07:03;;;;;;;;;17.00;16.25;;;;;8.00;49.62;102262.72;5059313;28;45291;-63
2022/03/20 08:09:29;;;;;;;;;23.75;22.75;;;;;8.00;49.59;102252.38;5046742;28;45365;-63
2022/03/20 08:11:55;;;;;;;;;24.75;20.75;;;;;8.02;49.53;102261.91;5059910;28;45420;-63
2022/03/20 08:14:22;;;;;;;;;17.50;17.50;;;;;8.10;49.31;102261.97;5059979;28;46851;-63
2022/03/20 08:16:49;;;;;;;;;24.00;18.25;;;;;8.13;49.19;102251.63;5059380;28;45258;-65
2022/03/20 08:19:17;;;;;;;;;23.50;13.25;;;;;8.20;49.36;102255.97;5059747;28;45346;-65
2022/03/20 08:21:43;;;;;;;;;10.25;10.25;;;;;8.29;49.37;102261.22;5059321;28;45398;-66
2022/03/20 08:24:09;;;;;;;;;23.75;20.00;;;;;8.29;49.33;102261.22;5059315;28;46849;-66
2022/03/20 08:26:35;;;;;;;;;17.25;14.25;;;;;8.35;49.14;102256.09;5059751;28;45817;-66
2022/03/20 08:29:01;;;;;;;;;22.50;18.75;;;;;8.40;49.26;102269.09;5058086;28;45181;-66
2022/03/20 08:31:28;;;;;;;;;29.25;22.00;;;;;8.46;49.03;102261.38;5059399;28;45509;-66
2022/03/20 08:33:57;;;;;;;;;29.00;20.75;;;;;8.54;49.08;102252.75;5059380;28;46546;-66
2022/03/20 08:36:22;;;;;;;;;22.50;19.00;;;;;8.65;48.99;102258.00;5059566;28;45456;-64
2022/03/20 08:38:48;;;;;;;;;26.00;21.25;;;;;8.74;49.01;102268.41;5057483;28;45315;-65
2022/03/20 08:41:13;;;;;;;;;28.50;23.75;;;;;8.80;48.45;102258.06;5058835;28;45507;-62
2022/03/20 08:43:39;;;;;;;;;21.00;18.75;;;;;8.82;48.88;102256.38;5058738;28;46078;-60
2022/03/20 08:46:04;;;;;;;;;31.75;22.50;;;;;8.93;48.45;102264.16;5058651;28;45344;-60
2022/03/20 08:48:30;;;;;;;;;26.75;20.00;;;;;9.02;48.47;102264.22;5058642;28;45251;-61
2022/03/20 08:50:55;;;;;;;;;26.25;19.75;;;;;9.09;48.49;102262.50;5058424;28;45493;-61
2022/03/20 08:53:20;;;;;;;;;22.75;20.50;;;;;9.11;48.29;102261.63;5058489;28;45229;-61
2022/03/20 08:55:47;;;;;;;;;22.50;19.00;;;;;9.19;48.23;102268.56;5058191;28;45509;-65
2022/03/20 08:58:14;;;;;;;;;25.00;20.50;;;;;9.24;48.32;102267.75;5058758;28;45287;-61
2022/03/20 09:00:40;;;;;;;;;32.25;23.50;;;;;9.35;48.29;102276.41;5058637;28;45519;-61
2022/03/20 09:03:06;;;;;;;;;24.75;22.00;;;;;9.45;48.14;102267.78;5058431;28;45295;-61
2022/03/20 09:05:32;;;;;;;;;37.00;23.00;;;;;9.57;48.03;102271.25;5058221;28;45918;-62
2022/03/20 09:07:58;;;;;;;;;28.75;19.25;;;;;9.73;47.49;102267.81;5057399;28;45282;-62
2022/03/20 09:10:24;;;;;;;;;29.75;24.50;;;;;9.84;47.50;102268.69;5058407;28;45379;-62
2022/03/20 09:12:51;;;;;;;;;27.25;18.00;;;;;9.95;46.74;102277.31;5058592;28;46160;-63
2022/03/20 09:15:17;;;;;;;;;29.50;25.25;;;;;10.02;46.87;102273.00;5054666;28;45362;-65
2022/03/20 09:20:30;;;;;;;;;33.25;27.75;;;;;10.26;46.14;102278.22;5056500;28;45253;-63
2022/03/20 09:22:56;;;;;;;;;30.00;24.00;;;;;10.32;46.16;102278.19;5061649;28;45338;-63
2022/03/20 09:25:22;;;;;;;;;27.25;23.25;;;;;10.40;45.62;102285.09;5060890;28;45372;-64
2022/03/20 09:27:48;;;;;;;;;30.00;25.50;;;;;10.45;45.22;102276.44;5062751;28;45435;-65
2022/03/20 09:30:14;;;;;;;;;33.25;24.25;;;;;10.38;45.20;102279.03;5061296;28;45352;-64
2022/03/20 09:32:40;;;;;;;;;27.25;25.50;;;;;10.41;45.32;102279.91;5061659;28;46311;-64
2022/03/20 09:35:06;;;;;;;;;34.25;27.75;;;;;10.43;45.71;102272.97;5061346;28;45146;-65
2022/03/20 09:37:31;;;;;;;;;35.50;30.50;;;;;10.47;45.08;102272.09;5061624;28;45150;-66
2022/03/20 09:39:57;;;;;;;;;42.00;30.75;;;;;10.59;45.72;102269.44;5061693;28;45211;-63
2022/03/20 09:42:22;;;;;;;;;22.50;19.25;;;;;10.73;44.99;102269.41;5062199;28;45339;-63
2022/03/20 09:44:49;;;;;;;;;34.50;29.50;;;;;10.85;44.88;102274.56;5061922;28;45397;-63
2022/03/20 09:47:18;;;;;;;;;33.50;27.00;;;;;10.98;44.60;102272.75;5062093;28;45360;-63
2022/03/20 09:49:47;;;;;;;;;37.50;31.75;;;;;11.19;44.73;102274.41;5061625;28;45338;-62
2022/03/20 09:52:14;;;;;;;;;38.00;32.25;;;;;11.34;44.41;102266.50;5061930;28;45409;-63
2022/03/20 09:54:40;;;;;;;;;41.50;32.25;;;;;11.43;44.46;102268.19;5060391;28;45538;-68
2022/03/20 09:57:07;;;;;;;;;38.00;30.50;;;;;11.58;44.01;102268.94;5059575;28;45346;-65
2022/03/20 09:59:33;;;;;;;;;38.00;30.50;;;;;11.71;44.03;102269.72;5061041;28;45356;-66
2022/03/20 10:02:03;;;;;;;;;31.25;26.50;;;;;11.81;43.80;102270.53;5061033;28;46437;-65
2022/03/20 10:04:29;;;;;;;;;38.50;30.25;;;;;11.78;43.51;102274.03;5057963;28;45497;-64
2022/03/20 10:06:54;;;;;;;;;39.50;30.50;;;;;11.83;42.79;102272.28;5058643;28;45513;-65
2022/03/20 10:09:23;;;;;;;;;32.75;26.50;;;;;11.91;42.67;102279.16;5061538;28;45577;-65
2022/03/20 10:11:54;;;;;;;;;39.50;29.25;;;;;11.97;42.62;102282.56;5061699;28;46897;-65
2022/03/20 10:14:31;;;;;;;;;39.25;33.25;;;;;12.11;42.37;102272.03;5057395;28;45304;-64
2022/03/20 10:17:14;;;;;;;;;43.75;32.25;;;;;12.30;42.13;102277.94;5056163;28;45331;-68
2022/03/20 10:19:39;;;;;;;;;40.75;33.75;;;;;12.57;41.80;102279.38;5061745;28;45286;-61
2022/03/20 10:22:07;;;;;;;;;40.75;31.75;;;;;13.56;41.41;102281.56;5061191;28;45472;-63
2022/03/20 10:24:35;;;;;;;;;44.75;33.75;;;;;14.00;39.56;102280.84;5060069;28;45771;-61
2022/03/20 10:27:00;;;;;;;;;34.00;29.00;;;;;14.07;38.96;102275.53;5061577;28;45176;-64
2022/03/20 10:29:28;;;;;;;;;34.67;28.00;;;;;13.86;38.61;102276.75;5060805;28;45524;-65
2022/03/20 10:31:55;;;;;;;;;32.75;27.00;;;;;13.82;38.74;102270.72;5060348;28;45331;-65
2022/03/20 10:34:23;;;;;;;;;30.75;26.75;;;;;13.82;38.74;102265.50;5059149;28;45323;-67
2022/03/20 10:36:50;;;;;;;;;29.00;24.75;;;;;13.79;38.37;102270.75;5059067;28;45521;-67
2022/03/20 10:39:20;;;;;;;;;28.50;23.50;;;;;13.72;37.61;102263.91;5059214;28;45296;-66
2022/03/20 10:41:48;;;;;;;;;28.25;24.25;;;;;13.64;36.79;102269.28;5058963;28;45536;-66
2022/03/20 10:44:19;;;;;;;;;28.00;22.50;;;;;13.63;37.29;102264.94;5059322;28;46003;-67
2022/03/20 10:47:09;;;;;;;;;27.75;19.25;;;;;13.57;37.31;102265.00;5059469;28;45366;-67
2022/03/20 10:49:36;;;;;;;;;31.75;23.25;;;;;13.40;36.41;102262.66;5061094;28;45241;-62
2022/03/20 10:52:08;;;;;;;;;23.75;20.75;;;;;13.24;36.61;102268.13;5061254;28;45389;-66
2022/03/20 10:54:45;;;;;;;;;28.50;26.50;;;;;13.16;36.96;102267.31;5060297;28;45382;-63
2022/03/20 10:57:13;;;;;;;;;22.75;22.25;;;;;13.12;37.23;102265.66;5061072;28;45247;-65
2022/03/20 10:59:40;;;;;;;;;26.75;24.00;;;;;13.01;36.97;102256.25;5061056;28;45496;-66
2022/03/20 11:02:19;;;;;;;;;27.50;22.00;;;;;13.06;36.28;102261.38;5060925;28;46064;-63
2022/03/20 11:04:44;;;;;;;;;26.00;20.75;;;;;13.07;36.64;102263.97;5060886;28;45847;-63
2022/03/20 11:07:16;;;;;;;;;18.50;18.50;;;;;13.08;36.31;102257.88;5060654;28;45289;-62
2022/03/20 11:09:45;;;;;;;;;25.75;20.00;;;;;13.10;35.94;102253.50;5060881;28;45390;-62
2022/03/20 11:12:17;;;;;;;;;26.75;22.25;;;;;13.17;36.22;102259.47;5059223;28;46284;-60
2022/03/20 11:14:42;;;;;;;;;27.50;23.25;;;;;13.25;34.92;102260.28;5061004;28;45519;-63
2022/03/20 11:17:12;;;;;;;;;27.00;21.50;;;;;13.24;36.03;102255.09;5060808;28;45302;-69
2022/03/20 11:19:43;;;;;;;;;30.25;22.25;;;;;13.26;36.35;102242.88;5060375;28;45226;-65
2022/03/20 11:22:12;;;;;;;;;23.00;22.25;;;;;13.41;36.81;102253.06;5059962;28;45467;-61
2022/03/20 11:24:42;;;;;;;;;30.25;25.50;;;;;13.46;36.33;102259.09;5093465;27;45246;-61
2022/03/20 11:27:11;;;;;;;;;29.75;22.00;;;;;13.44;35.24;102253.03;5060528;28;45316;-67
2022/03/20 11:29:51;;;;;;;;;23.75;18.25;;;;;13.47;35.19;102253.00;5060075;28;45244;-72
2022/03/20 11:32:18;;;;;;;;;21.75;20.00;;;;;13.55;34.82;102250.25;5060210;28;46993;-69
2022/03/20 11:34:48;;;;;;;;;25.50;21.25;;;;;13.47;34.99;102247.78;5060343;28;45317;-67
2022/03/20 11:37:15;;;;;;;;;21.50;18.25;;;;;13.56;35.75;102250.22;5047361;28;45321;-77
2022/03/20 11:40:11;;;;;;;;;17.25;16.00;;;;;13.69;34.27;102253.50;5060082;28;45598;-61
2022/03/20 11:42:37;;;;;;;;;33.75;22.75;;;;;13.67;34.42;102250.06;5052833;28;46196;-64
2022/03/20 11:45:03;;;;;;;;;23.75;19.00;;;;;13.61;33.79;102247.53;5051840;28;46011;-63
2022/03/20 11:47:29;;;;;;;;;19.75;18.00;;;;;13.64;33.73;102247.50;5051814;28;45408;-65
2022/03/20 11:50:13;;;;;;;;;24.75;20.75;;;;;13.71;33.66;102249.13;5059918;28;45289;-62
2022/03/20 11:53:04;;;;;;;;;17.75;14.00;;;;;13.70;34.10;102256.09;5057022;28;47118;-67